createdAt,value
2023-05-16T00:00:06.825Z,96258.78
2023-05-16T00:02:34.984Z,96263.28
2023-05-16T00:05:04.454Z,96262.16
2023-05-16T00:07:34.107Z,96257.66
2023-05-16T00:10:02.879Z,96259.75
2023-05-16T00:12:32.949Z,96253.94
2023-05-16T00:15:02.316Z,96254.13
2023-05-16T00:17:30.306Z,96258.88
2023-05-16T00:20:00.195Z,96254.06
2023-05-16T00:22:28.339Z,96252.44
2023-05-16T00:24:56.352Z,96254.53
2023-05-16T00:27:24.316Z,96251.22
2023-05-16T00:29:52.450Z,96256.78
2023-05-16T00:32:22.344Z,96249.63
2023-05-16T00:34:50.808Z,96249.31
2023-05-16T00:37:18.991Z,96246.91
2023-05-16T00:39:47.105Z,96248.19
2023-05-16T00:42:15.233Z,96247.38
2023-05-16T00:44:43.278Z,96249.50
2023-05-16T00:47:11.362Z,96244.91
2023-05-16T00:49:40.923Z,96240.41
2023-05-16T00:52:08.912Z,96243.53
2023-05-16T00:54:38.251Z,96240.88
2023-05-16T00:57:08.180Z,96244.00
2023-05-16T00:59:37.962Z,96245.38
2023-05-16T01:02:06.385Z,96242.34
2023-05-16T01:04:35.506Z,96247.06
2023-05-16T01:07:05.170Z,96251.19
2023-05-16T01:09:36.658Z,96255.34
2023-05-16T01:12:16.004Z,96253.75
2023-05-16T01:14:54.172Z,96255.59
2023-05-16T01:17:30.324Z,96256.94
2023-05-16T01:20:12.094Z,96259.03
2023-05-16T01:23:02.788Z,96244.59
2023-05-16T01:25:46.854Z,96252.44
2023-05-16T01:28:18.839Z,96247.94
2023-05-16T01:30:47.242Z,96250.03
2023-05-16T01:33:15.305Z,96249.00
2023-05-16T01:35:55.366Z,96252.66
2023-05-16T01:38:27.504Z,96262.94
2023-05-16T01:41:01.087Z,96257.56
2023-05-16T01:43:36.644Z,96257.41
2023-05-16T01:46:13.504Z,96265.50
2023-05-16T01:48:52.452Z,96263.06
2023-05-16T01:51:23.810Z,96270.19
2023-05-16T01:53:58.318Z,96259.97
2023-05-16T01:56:27.491Z,96263.41
2023-05-16T01:58:59.136Z,96262.38
2023-05-16T02:01:27.263Z,96264.44
2023-05-16T02:03:55.410Z,96268.69
2023-05-16T02:06:23.766Z,96267.66
2023-05-16T02:08:51.816Z,96265.25
2023-05-16T02:11:19.946Z,96270.19
2023-05-16T02:13:47.940Z,96270.53
2023-05-16T02:16:17.595Z,96273.41
2023-05-16T02:18:45.994Z,96276.53
2023-05-16T02:21:19.711Z,96272.06
2023-05-16T02:23:47.869Z,96276.53
2023-05-16T02:26:15.953Z,96277.66
2023-05-16T02:28:44.316Z,96274.56
2023-05-16T02:31:13.407Z,96270.53
2023-05-16T02:33:42.740Z,96275.59
2023-05-16T02:36:11.443Z,96275.34
2023-05-16T02:38:39.452Z,96278.25
2023-05-16T02:41:07.475Z,96279.03
2023-05-16T02:43:35.493Z,96285.59
2023-05-16T02:46:06.197Z,96276.53
2023-05-16T02:48:34.244Z,96271.16
2023-05-16T02:51:04.104Z,96275.94
2023-05-16T02:53:32.120Z,96274.81
2023-05-16T02:56:00.375Z,96271.16
2023-05-16T02:58:28.704Z,96270.03
2023-05-16T03:00:56.666Z,96266.25
2023-05-16T03:03:24.851Z,96270.94
2023-05-16T03:05:53.133Z,96278.66
2023-05-16T03:08:22.448Z,96275.69
2023-05-16T03:10:50.792Z,96280.47
2023-05-16T03:13:18.803Z,96280.25
2023-05-16T03:15:47.940Z,96279.47
2023-05-16T03:18:17.176Z,96277.06
2023-05-16T03:20:45.326Z,96276.25
2023-05-16T03:23:13.336Z,96283.47
2023-05-16T03:25:43.654Z,96283.56
2023-05-16T03:28:15.149Z,96287.03
2023-05-16T03:30:43.475Z,96283.56
2023-05-16T03:33:11.832Z,96278.84
2023-05-16T03:35:40.870Z,96278.59
2023-05-16T03:38:09.116Z,96280.91
2023-05-16T03:40:37.439Z,96285.06
2023-05-16T03:43:10.204Z,96281.72
2023-05-16T03:45:38.321Z,96289.09
2023-05-16T03:48:07.116Z,96282.53
2023-05-16T03:50:39.532Z,96288.63
2023-05-16T03:53:09.302Z,96277.91
2023-05-16T03:55:37.509Z,96283.66
2023-05-16T03:58:05.517Z,96279.09
2023-05-16T04:00:37.736Z,96275.94
2023-05-16T04:03:05.860Z,96280.91
2023-05-16T04:05:33.975Z,96284.03
2023-05-16T04:08:02.085Z,96285.88
2023-05-16T04:10:30.531Z,96283.78
2023-05-16T04:12:58.531Z,96283.88
2023-05-16T04:15:26.654Z,96291.03
2023-05-16T04:17:56.756Z,96291.94
2023-05-16T04:20:24.843Z,96294.13
2023-05-16T04:22:53.311Z,96290.91
2023-05-16T04:25:21.367Z,96298.13
2023-05-16T04:27:49.374Z,96295.50
2023-05-16T04:30:17.768Z,96300.53
2023-05-16T04:32:46.175Z,96302.06
2023-05-16T04:35:16.127Z,96304.44
2023-05-16T04:37:44.273Z,96305.72
2023-05-16T04:40:14.355Z,96302.28
2023-05-16T04:42:42.420Z,96300.44
2023-05-16T04:45:14.632Z,96295.72
2023-05-16T04:47:42.990Z,96305.84
2023-05-16T04:50:11.941Z,96305.84
2023-05-16T04:52:41.397Z,96306.31
2023-05-16T04:55:11.590Z,96319.53
2023-05-16T04:57:39.700Z,96315.59
2023-05-16T05:00:13.599Z,96321.13
2023-05-16T05:02:41.889Z,96319.75
2023-05-16T05:05:10.714Z,96326.19
2023-05-16T05:07:38.768Z,96324.59
2023-05-16T05:10:09.415Z,96329.66
2023-05-16T05:12:37.480Z,96331.72
2023-05-16T05:15:07.224Z,96328.50
2023-05-16T05:17:35.700Z,96333.22
2023-05-16T05:20:06.821Z,96341.38
2023-05-16T05:22:34.924Z,96342.97
2023-05-16T05:25:03.547Z,96346.53
2023-05-16T05:27:33.044Z,96344.47
2023-05-16T05:30:01.190Z,96347.34
2023-05-16T05:32:29.303Z,96347.13
2023-05-16T05:34:57.408Z,96347.03
2023-05-16T05:37:25.499Z,96341.25
2023-05-16T05:39:53.558Z,96351.03
2023-05-16T05:42:21.587Z,96345.97
2023-05-16T05:44:51.096Z,96353.91
2023-05-16T05:47:19.393Z,96349.56
2023-05-16T05:49:47.562Z,96353.56
2023-05-16T05:52:16.137Z,96346.22
2023-05-16T05:54:44.169Z,96347.59
2023-05-16T05:57:12.294Z,96351.59
2023-05-16T05:59:40.727Z,96353.34
2023-05-16T06:02:15.617Z,96350.22
2023-05-16T06:04:45.271Z,96352.06
2023-05-16T06:07:15.265Z,96343.88
2023-05-16T06:09:43.652Z,96353.53
2023-05-16T06:12:11.773Z,96354.34
2023-05-16T06:14:40.054Z,96352.72
2023-05-16T06:17:09.498Z,96352.41
2023-05-16T06:19:37.652Z,96368.50
2023-05-16T06:22:06.070Z,96350.22
2023-05-16T06:24:34.235Z,96358.84
2023-05-16T06:27:02.221Z,96367.09
2023-05-16T06:29:30.284Z,96367.31
2023-05-16T06:31:58.543Z,96372.94
2023-05-16T06:34:28.670Z,96367.56
2023-05-16T06:36:56.899Z,96376.25
2023-05-16T06:39:24.986Z,96373.16
2023-05-16T06:41:56.191Z,96369.06
2023-05-16T06:44:25.068Z,96373.88
2023-05-16T06:46:53.265Z,96377.97
2023-05-16T06:49:21.471Z,96378.63
2023-05-16T06:51:50.909Z,96374.00
2023-05-16T06:54:19.034Z,96383.28
2023-05-16T06:56:47.168Z,96380.66
2023-05-16T06:59:15.599Z,96384.13
2023-05-16T07:01:43.812Z,96387.41
2023-05-16T07:04:12.066Z,96386.28
2023-05-16T07:06:40.159Z,96390.56
2023-05-16T07:09:09.649Z,96391.59
2023-05-16T07:11:37.720Z,96398.44
2023-05-16T07:14:05.868Z,96396.75
2023-05-16T07:16:34.036Z,96397.91
2023-05-16T07:19:02.178Z,96399.44
2023-05-16T07:21:30.449Z,96400.47
2023-05-16T07:23:58.905Z,96406.69
2023-05-16T07:26:28.516Z,96411.44
2023-05-16T07:28:56.666Z,96410.06
2023-05-16T07:31:25.294Z,96412.03
2023-05-16T07:33:53.557Z,96413.56
2023-05-16T07:36:21.760Z,96414.59
2023-05-16T07:38:49.825Z,96415.06
2023-05-16T07:41:17.963Z,96418.97
2023-05-16T07:43:47.453Z,96420.22
2023-05-16T07:46:18.244Z,96414.59
2023-05-16T07:48:46.573Z,96416.44
2023-05-16T07:51:14.757Z,96426.69
2023-05-16T07:53:43.045Z,96422.91
2023-05-16T07:56:11.393Z,96426.72
2023-05-16T07:58:39.827Z,96421.44
2023-05-16T08:01:09.219Z,96427.75
2023-05-16T08:03:40.955Z,96423.75
2023-05-16T08:06:09.334Z,96430.31
2023-05-16T08:08:38.061Z,96425.34
2023-05-16T08:11:30.188Z,96423.41
2023-05-16T08:13:58.390Z,96434.00
2023-05-16T08:16:27.897Z,96430.88
2023-05-16T08:18:56.538Z,96432.16
2023-05-16T08:21:24.810Z,96428.25
2023-05-16T08:23:52.886Z,96432.03
2023-05-16T08:26:22.029Z,96423.78
2023-05-16T08:28:50.261Z,96436.28
2023-05-16T08:31:18.375Z,96440.19
2023-05-16T08:33:47.909Z,96433.75
2023-05-16T08:36:16.206Z,96436.75
2023-05-16T08:38:44.264Z,96431.00
2023-05-16T08:41:12.374Z,96437.00
2023-05-16T08:43:40.864Z,96435.94
2023-05-16T08:46:09.622Z,96433.63
2023-05-16T08:48:39.670Z,96437.13
2023-05-16T08:51:10.868Z,96437.66
2023-05-16T08:53:44.337Z,96437.31
2023-05-16T08:56:13.959Z,96438.13
2023-05-16T08:58:42.330Z,96441.47
2023-05-16T09:01:11.185Z,96444.09
2023-05-16T09:03:40.199Z,96442.59
2023-05-16T09:06:09.867Z,96440.31
2023-05-16T09:08:38.750Z,96443.66
2023-05-16T09:11:07.064Z,96455.25
2023-05-16T09:13:35.419Z,96445.69
2023-05-16T09:16:11.327Z,96451.22
2023-05-16T09:18:40.262Z,96444.66
2023-05-16T09:21:11.242Z,96449.84
2023-05-16T09:23:39.569Z,96447.97
2023-05-16T09:26:08.596Z,96453.31
2023-05-16T09:28:39.822Z,96453.63
2023-05-16T09:31:22.868Z,96452.69
2023-05-16T09:33:51.563Z,96459.69
2023-05-16T09:36:21.075Z,96454.53
2023-05-16T09:38:49.374Z,96448.78
2023-05-16T09:41:17.592Z,96445.88
2023-05-16T09:43:46.458Z,96441.84
2023-05-16T09:46:15.688Z,96446.00
2023-05-16T09:48:47.453Z,96448.44
2023-05-16T09:51:16.354Z,96448.69
2023-05-16T09:53:46.152Z,96447.25
2023-05-16T09:56:16.358Z,96449.78
2023-05-16T09:58:46.302Z,96456.22
2023-05-16T10:01:14.506Z,96443.59
2023-05-16T10:03:44.014Z,96454.72
2023-05-16T10:06:13.896Z,96446.00
2023-05-16T10:08:45.686Z,96441.88
2023-05-16T10:11:15.254Z,96440.75
2023-05-16T10:13:44.889Z,96445.78
2023-05-16T10:16:16.065Z,96451.53
2023-05-16T10:18:44.946Z,96446.72
2023-05-16T10:21:17.838Z,96447.84
2023-05-16T10:23:51.025Z,96447.38
2023-05-16T10:26:19.248Z,96454.72
2023-05-16T10:28:47.950Z,96450.53
2023-05-16T10:31:17.780Z,96453.25
2023-05-16T10:33:47.019Z,96456.00
2023-05-16T10:36:16.408Z,96449.56
2023-05-16T10:38:46.197Z,96456.28
2023-05-16T10:41:15.234Z,96461.66
2023-05-16T10:43:57.408Z,96460.38
2023-05-16T10:46:28.007Z,96454.72
2023-05-16T10:48:57.872Z,96457.34
2023-05-16T10:51:38.893Z,96459.25
2023-05-16T10:54:12.607Z,96464.88
2023-05-16T10:56:41.122Z,96457.16
2023-05-16T10:59:26.125Z,96460.06
2023-05-16T11:01:56.893Z,96457.50
2023-05-16T11:04:45.589Z,96455.09
2023-05-16T11:07:13.897Z,96460.16
2023-05-16T11:09:46.019Z,96459.81
2023-05-16T11:12:15.662Z,96474.91
2023-05-16T11:14:45.153Z,96468.19
2023-05-16T11:17:16.294Z,96469.78
2023-05-16T11:19:46.847Z,96477.03
2023-05-16T11:22:26.890Z,96484.06
2023-05-16T11:25:01.409Z,96483.00
2023-05-16T11:27:32.548Z,96477.41
2023-05-16T11:30:12.825Z,96487.75
2023-05-16T11:32:43.665Z,96481.75
2023-05-16T11:35:15.381Z,96482.47
2023-05-16T11:37:44.100Z,96488.47
2023-05-16T11:40:15.719Z,96490.09
2023-05-16T11:42:46.272Z,96487.56
2023-05-16T11:45:17.859Z,96491.69
2023-05-16T11:47:48.862Z,96499.03
2023-05-16T11:50:19.439Z,96498.59
2023-05-16T11:52:50.532Z,96496.16
2023-05-16T11:55:33.199Z,96502.97
2023-05-16T11:58:09.276Z,96493.28
2023-05-16T12:00:37.645Z,96504.09
2023-05-16T12:03:06.864Z,96502.97
2023-05-16T12:05:36.030Z,96498.59
2023-05-16T12:08:05.645Z,96503.22
2023-05-16T12:10:35.481Z,96496.75
2023-05-16T12:13:04.824Z,96495.38
2023-05-16T12:15:33.172Z,96506.19
2023-05-16T12:18:02.445Z,96506.44
2023-05-16T12:20:30.781Z,96504.34
2023-05-16T12:22:59.479Z,96514.13
2023-05-16T12:25:32.024Z,96513.09
2023-05-16T12:28:03.465Z,96527.13
2023-05-16T12:30:33.975Z,96524.13
2023-05-16T12:33:07.995Z,96529.69
2023-05-16T12:35:38.893Z,96531.38
2023-05-16T12:38:10.010Z,96535.66
2023-05-16T12:40:39.488Z,96532.41
2023-05-16T12:43:15.327Z,96550.50
2023-05-16T12:45:44.373Z,96546.00
2023-05-16T12:48:16.112Z,96542.41
2023-05-16T12:50:46.551Z,96543.22
2023-05-16T12:53:17.050Z,96540.25
2023-05-16T12:55:46.409Z,96542.63
2023-05-16T12:58:16.517Z,96548.06
2023-05-16T13:00:44.760Z,96546.91
2023-05-16T13:03:12.959Z,96545.88
2023-05-16T13:05:41.136Z,96548.06
2023-05-16T13:13:54.710Z,96557.91
2023-05-16T13:16:22.823Z,96553.53
2023-05-16T13:18:51.038Z,96549.28
2023-05-16T13:21:19.154Z,96558.38
2023-05-16T13:23:47.215Z,96550.31
2023-05-16T13:26:15.380Z,96557.44
2023-05-16T13:28:43.962Z,96563.22
2023-05-16T13:31:13.414Z,96563.22
2023-05-16T13:33:41.808Z,96564.47
2023-05-16T13:36:10.130Z,96556.06
2023-05-16T13:38:38.423Z,96565.03
2023-05-16T13:41:06.538Z,96571.09
2023-05-16T13:43:34.740Z,96570.78
2023-05-16T13:46:02.984Z,96569.38
2023-05-16T13:48:32.544Z,96564.44
2023-05-16T13:51:00.624Z,96563.03
2023-05-16T13:53:28.662Z,96570.88
2023-05-16T13:55:56.705Z,96573.06
2023-05-16T13:58:24.813Z,96569.94
2023-05-16T14:00:53.767Z,96578.88
2023-05-16T14:03:22.863Z,96572.03
2023-05-16T14:05:52.313Z,96573.81
2023-05-16T14:08:20.610Z,96569.09
2023-05-16T14:10:48.865Z,96565.56
2023-05-16T14:13:17.205Z,96567.50
2023-05-16T14:15:45.936Z,96570.06
2023-05-16T14:18:14.635Z,96569.72
2023-05-16T14:20:42.899Z,96569.72
2023-05-16T14:23:12.677Z,96565.56
2023-05-16T14:25:41.259Z,96571.88
2023-05-16T14:28:09.616Z,96564.41
2023-05-16T14:30:37.928Z,96561.28
2023-05-16T14:33:06.665Z,96558.63
2023-05-16T14:35:34.966Z,96570.16
2023-05-16T14:38:03.022Z,96561.09
2023-05-16T14:40:32.503Z,96560.38
2023-05-16T14:43:00.890Z,96578.78
2023-05-16T14:45:29.429Z,96560.59
2023-05-16T14:47:57.770Z,96571.44
2023-05-16T14:50:25.977Z,96565.44
2023-05-16T14:52:54.090Z,96579.13
2023-05-16T14:55:22.835Z,96580.31
2023-05-16T14:57:59.019Z,96586.41
2023-05-16T15:00:28.454Z,96596.16
2023-05-16T15:02:56.818Z,96592.38
2023-05-16T15:05:25.736Z,96594.81
2023-05-16T15:07:53.922Z,96600.09
2023-05-16T15:10:22.278Z,96594.78
2023-05-16T15:12:51.765Z,96605.63
2023-05-16T15:15:20.040Z,96593.16
2023-05-16T15:17:48.568Z,96607.91
2023-05-16T15:20:16.705Z,96607.13
2023-05-16T15:22:44.991Z,96606.91
2023-05-16T15:25:15.745Z,96604.69
2023-05-16T15:27:44.348Z,96610.00
2023-05-16T15:30:16.336Z,96601.13
2023-05-16T15:32:44.938Z,96610.25
2023-05-16T15:35:13.285Z,96605.06
2023-05-16T15:37:43.632Z,96605.75
2023-05-16T15:40:15.577Z,96613.69
2023-05-16T15:42:44.879Z,96610.13
2023-05-16T15:45:14.621Z,96616.69
2023-05-16T15:47:42.955Z,96610.00
2023-05-16T15:50:16.623Z,96610.69
2023-05-16T15:52:44.869Z,96612.16
2023-05-16T15:55:17.492Z,96613.97
2023-05-16T15:57:45.657Z,96615.03
2023-05-16T16:00:17.540Z,96619.16
2023-05-16T16:02:46.142Z,96616.31
2023-05-16T16:05:14.745Z,96617.69
2023-05-16T16:07:43.045Z,96619.28
2023-05-16T16:10:14.191Z,96623.25
2023-05-16T16:12:42.334Z,96618.13
2023-05-16T16:15:14.890Z,96619.16
2023-05-16T16:17:43.601Z,96619.50
2023-05-16T16:20:12.682Z,96616.97
2023-05-16T16:22:40.964Z,96625.97
2023-05-16T16:25:10.033Z,96628.16
2023-05-16T16:27:38.210Z,96624.34
2023-05-16T16:30:08.477Z,96630.09
2023-05-16T16:32:38.250Z,96627.22
2023-05-16T16:35:07.778Z,96628.34
2023-05-16T16:37:36.690Z,96623.66
2023-05-16T16:40:08.212Z,96629.16
2023-05-16T16:42:38.036Z,96621.44
2023-05-16T16:45:07.781Z,96633.78
2023-05-16T16:47:39.305Z,96634.34
2023-05-16T16:50:08.934Z,96634.56
2023-05-16T16:52:37.224Z,96635.50
2023-05-16T16:55:07.510Z,96632.63
2023-05-16T16:57:35.724Z,96637.81
2023-05-16T17:00:04.550Z,96641.13
2023-05-16T17:02:33.783Z,96637.09
2023-05-16T17:05:04.855Z,96641.94
2023-05-16T17:07:33.131Z,96636.66
2023-05-16T17:10:03.837Z,96645.63
2023-05-16T17:12:34.656Z,96642.97
2023-05-16T17:15:06.711Z,96649.44
2023-05-16T17:17:35.097Z,96647.25
2023-05-16T17:20:09.024Z,96652.31
2023-05-16T17:22:37.435Z,96654.25
2023-05-16T17:25:06.586Z,96652.53
2023-05-16T17:27:37.581Z,96655.28
2023-05-16T17:30:11.454Z,96660.34
2023-05-16T17:32:40.087Z,96650.78
2023-05-16T17:35:10.485Z,96652.97
2023-05-16T17:37:38.583Z,96652.41
2023-05-16T17:40:10.486Z,96662.63
2023-05-16T17:42:38.931Z,96664.81
2023-05-16T17:45:09.179Z,96661.59
2023-05-16T17:47:37.908Z,96664.00
2023-05-16T17:50:10.497Z,96667.47
2023-05-16T17:52:40.504Z,96670.34
2023-05-16T17:55:10.932Z,96663.66
2023-05-16T17:57:39.283Z,96671.50
2023-05-16T18:00:11.493Z,96668.13
2023-05-16T18:02:40.091Z,96664.56
2023-05-16T18:05:12.042Z,96672.75
2023-05-16T18:07:41.069Z,96675.06
2023-05-16T18:10:11.495Z,96679.09
2023-05-16T18:12:40.429Z,96688.50
2023-05-16T18:15:10.819Z,96684.84
2023-05-16T18:17:39.264Z,96686.97
2023-05-16T18:20:11.681Z,96690.88
2023-05-16T18:22:41.256Z,96695.34
2023-05-16T18:25:11.466Z,96691.13
2023-05-16T18:27:39.786Z,96697.75
2023-05-16T18:33:04.144Z,96701.69
2023-05-16T18:35:33.825Z,96714.69
2023-05-16T18:38:03.954Z,96710.69
2023-05-16T18:40:32.582Z,96717.94
2023-05-16T18:43:00.949Z,96714.78
2023-05-16T18:45:30.818Z,96721.47
2023-05-16T18:47:59.282Z,96729.25
2023-05-16T18:50:28.332Z,96726.91
2023-05-16T18:52:58.116Z,96727.06
2023-05-16T18:55:26.849Z,96721.91
2023-05-16T18:57:55.667Z,96735.78
2023-05-16T19:00:24.108Z,96741.59
2023-05-16T19:02:52.945Z,96746.38
2023-05-16T19:05:21.359Z,96743.28
2023-05-16T19:07:50.845Z,96737.22
2023-05-16T19:10:20.747Z,96747.22
2023-05-16T19:12:49.371Z,96745.56
2023-05-16T19:15:18.833Z,96748.34
2023-05-16T19:17:47.277Z,96749.81
2023-05-16T19:20:15.691Z,96758.13
2023-05-16T19:22:43.972Z,96757.25
2023-05-16T19:25:12.268Z,96763.81
2023-05-16T19:27:42.928Z,96757.03
2023-05-16T19:30:12.914Z,96764.09
2023-05-16T19:32:41.273Z,96771.41
2023-05-16T19:35:10.959Z,96780.06
2023-05-16T19:37:41.760Z,96782.13
2023-05-16T19:40:11.163Z,96778.75
2023-05-16T19:42:41.356Z,96772.97
2023-05-16T19:45:11.333Z,96787.66
2023-05-16T19:47:40.234Z,96785.16
2023-05-16T19:50:10.303Z,96784.69
2023-05-16T19:52:38.568Z,96782.81
2023-05-16T19:55:10.508Z,96798.59
2023-05-16T19:57:39.411Z,96802.47
2023-05-16T20:00:11.283Z,96801.06
2023-05-16T20:02:43.379Z,96801.28
2023-05-16T20:05:12.693Z,96802.16
2023-05-16T20:07:41.311Z,96805.25
2023-05-16T20:10:11.102Z,96809.91
2023-05-16T20:12:39.585Z,96816.28
2023-05-16T20:15:11.084Z,96803.72
2023-05-16T20:17:41.180Z,96812.88
2023-05-16T20:20:10.914Z,96814.78
2023-05-16T20:22:41.462Z,96812.75
2023-05-16T20:25:14.714Z,96825.13
2023-05-16T20:27:43.038Z,96818.03
2023-05-16T20:30:14.621Z,96816.69
2023-05-16T20:32:42.995Z,96816.91
2023-05-16T20:35:14.850Z,96824.47
2023-05-16T20:37:49.331Z,96818.19
2023-05-16T20:40:17.608Z,96831.78
2023-05-16T20:42:45.912Z,96828.97
2023-05-16T20:45:17.420Z,96835.06
2023-05-16T20:47:47.529Z,96831.44
2023-05-16T20:50:15.884Z,96840.00
2023-05-16T20:52:44.160Z,96838.75
2023-05-16T20:55:12.446Z,96836.13
2023-05-16T20:57:43.113Z,96841.59
2023-05-16T21:00:16.153Z,96841.84
2023-05-16T21:02:45.814Z,96846.13
2023-05-16T21:05:25.006Z,96843.28
2023-05-16T21:07:54.486Z,96844.31
2023-05-16T21:10:22.756Z,96841.53
2023-05-16T21:12:51.255Z,96837.91
2023-05-16T21:15:23.022Z,96850.66
2023-05-16T21:17:53.530Z,96848.66
2023-05-16T21:20:21.832Z,96850.91
2023-05-16T21:23:14.628Z,96850.94
2023-05-16T21:25:42.819Z,96846.91
2023-05-16T21:28:10.968Z,96856.22
2023-05-16T21:30:39.222Z,96854.41
2023-05-16T21:33:10.485Z,96853.59
2023-05-16T21:35:38.937Z,96857.66
2023-05-16T21:38:07.008Z,96859.31
2023-05-16T21:40:35.121Z,96860.91
2023-05-16T21:43:03.280Z,96860.31
2023-05-16T21:45:31.389Z,96862.94
2023-05-16T21:47:59.506Z,96861.94
2023-05-16T21:50:29.300Z,96868.00
2023-05-16T21:52:57.391Z,96868.03
2023-05-16T21:55:25.896Z,96869.84
2023-05-16T21:57:54.088Z,96877.16
2023-05-16T22:00:24.879Z,96878.19
2023-05-16T22:02:53.073Z,96880.84
2023-05-16T22:05:45.924Z,96881.03
2023-05-16T22:08:15.378Z,96884.69
2023-05-16T22:10:43.672Z,96885.06
2023-05-16T22:13:14.349Z,96892.38
2023-05-16T22:15:44.523Z,96881.41
2023-05-16T22:18:15.805Z,96881.81
2023-05-16T22:20:44.117Z,96887.13
2023-05-16T22:23:12.393Z,96896.88
2023-05-16T22:25:41.809Z,96894.00
2023-05-16T22:28:09.867Z,96904.53
2023-05-16T22:30:38.095Z,96891.16
2023-05-16T22:33:06.315Z,96902.94
2023-05-16T22:35:35.070Z,96896.25
2023-05-16T22:38:04.224Z,96902.72
2023-05-16T22:40:32.356Z,96899.28
2023-05-16T22:43:01.824Z,96893.03
2023-05-16T22:45:30.045Z,96895.66
2023-05-16T22:47:58.304Z,96901.34
2023-05-16T22:50:26.485Z,96910.88
2023-05-16T22:52:54.675Z,96903.38
2023-05-16T22:55:22.917Z,96899.53
2023-05-16T22:57:52.707Z,96898.50
2023-05-16T23:00:23.562Z,96904.81
2023-05-16T23:02:51.773Z,96909.88
2023-05-16T23:05:20.317Z,96910.47
2023-05-16T23:07:48.417Z,96905.84
2023-05-16T23:10:16.755Z,96918.19
2023-05-16T23:12:44.847Z,96911.91
2023-05-16T23:15:13.447Z,96909.91
2023-05-16T23:17:43.104Z,96912.53
2023-05-16T23:20:12.131Z,96920.03
2023-05-16T23:22:40.316Z,96914.34
2023-05-16T23:25:09.427Z,96914.34
2023-05-16T23:27:37.519Z,96918.41
2023-05-16T23:30:07.814Z,96916.38
2023-05-16T23:32:36.458Z,96916.38
2023-05-16T23:35:07.417Z,96921.25
2023-05-16T23:43:21.048Z,96927.53
2023-05-16T23:45:49.196Z,96933.41
2023-05-16T23:48:17.350Z,96939.47
2023-05-16T23:50:46.829Z,96930.78
2023-05-16T23:53:14.913Z,96933.41
2023-05-16T23:55:43.030Z,96934.63
2023-05-16T23:58:11.158Z,96937.03
